sensor_id;sensor_type;location;lat;lon;timestamp;temperature;humidity
52899;DHT22;38763;53.096;6.062;2023-02-12T00:00:05;4.80;99.90
52899;DHT22;38763;53.096;6.062;2023-02-12T00:02:31;4.80;99.90
52899;DHT22;38763;53.096;6.062;2023-02-12T00:04:57;4.80;99.90
52899;DHT22;38763;53.096;6.062;2023-02-12T00:07:23;4.80;99.90
52899;DHT22;38763;53.096;6.062;2023-02-12T00:09:48;4.80;99.90
52899;DHT22;38763;53.096;6.062;2023-02-12T00:12:14;4.80;99.90
52899;DHT22;38763;53.096;6.062;2023-02-12T00:14:41;4.80;99.90
52899;DHT22;38763;53.096;6.062;2023-02-12T00:17:06;4.80;99.90
52899;DHT22;38763;53.096;6.062;2023-02-12T00:19:32;4.80;99.90
52899;DHT22;38763;53.096;6.062;2023-02-12T00:21:58;4.80;99.90
52899;DHT22;38763;53.096;6.062;2023-02-12T00:24:23;4.90;99.90
52899;DHT22;38763;53.096;6.062;2023-02-12T00:26:49;4.80;99.90
52899;DHT22;38763;53.096;6.062;2023-02-12T00:29:15;4.80;99.90
52899;DHT22;38763;53.096;6.062;2023-02-12T00:31:41;4.90;99.90
52899;DHT22;38763;53.096;6.062;2023-02-12T00:34:08;4.90;99.90
52899;DHT22;38763;53.096;6.062;2023-02-12T00:36:34;4.90;99.90
52899;DHT22;38763;53.096;6.062;2023-02-12T00:39:00;5.00;99.90
52899;DHT22;38763;53.096;6.062;2023-02-12T00:41:26;5.00;99.90
52899;DHT22;38763;53.096;6.062;2023-02-12T00:43:52;5.00;99.90
52899;DHT22;38763;53.096;6.062;2023-02-12T00:46:18;5.00;99.90
52899;DHT22;38763;53.096;6.062;2023-02-12T00:48:44;5.00;99.90
52899;DHT22;38763;53.096;6.062;2023-02-12T00:51:10;4.90;99.90
52899;DHT22;38763;53.096;6.062;2023-02-12T00:53:36;4.90;99.90
52899;DHT22;38763;53.096;6.062;2023-02-12T00:56:01;4.90;99.90
52899;DHT22;38763;53.096;6.062;2023-02-12T00:58:27;5.00;99.90
52899;DHT22;38763;53.096;6.062;2023-02-12T01:00:54;5.00;99.90
52899;DHT22;38763;53.096;6.062;2023-02-12T01:03:20;5.00;99.90
52899;DHT22;38763;53.096;6.062;2023-02-12T01:05:45;5.00;99.90
52899;DHT22;38763;53.096;6.062;2023-02-12T01:08:14;5.00;99.90
52899;DHT22;38763;53.096;6.062;2023-02-12T01:10:41;5.10;99.90
52899;DHT22;38763;53.096;6.062;2023-02-12T01:13:08;5.10;99.90
52899;DHT22;38763;53.096;6.062;2023-02-12T01:15:35;5.10;99.90
52899;DHT22;38763;53.096;6.062;2023-02-12T01:18:00;5.00;99.90
52899;DHT22;38763;53.096;6.062;2023-02-12T01:20:26;5.00;99.90
52899;DHT22;38763;53.096;6.062;2023-02-12T01:22:52;5.00;99.90
52899;DHT22;38763;53.096;6.062;2023-02-12T01:25:17;5.10;99.90
52899;DHT22;38763;53.096;6.062;2023-02-12T01:27:43;5.10;99.90
52899;DHT22;38763;53.096;6.062;2023-02-12T01:30:11;5.20;99.90
52899;DHT22;38763;53.096;6.062;2023-02-12T01:32:37;5.10;99.90
52899;DHT22;38763;53.096;6.062;2023-02-12T01:35:04;5.10;99.90
52899;DHT22;38763;53.096;6.062;2023-02-12T01:37:29;5.20;99.90
52899;DHT22;38763;53.096;6.062;2023-02-12T01:39:55;5.20;99.90
52899;DHT22;38763;53.096;6.062;2023-02-12T01:42:21;5.10;99.90
52899;DHT22;38763;53.096;6.062;2023-02-12T01:47:42;5.10;99.90
52899;DHT22;38763;53.096;6.062;2023-02-12T01:50:12;5.10;99.90
52899;DHT22;38763;53.096;6.062;2023-02-12T01:52:43;5.00;99.90
52899;DHT22;38763;53.096;6.062;2023-02-12T01:55:10;4.90;99.90
52899;DHT22;38763;53.096;6.062;2023-02-12T01:57:40;5.00;99.90
52899;DHT22;38763;53.096;6.062;2023-02-12T02:00:11;5.00;99.90
52899;DHT22;38763;53.096;6.062;2023-02-12T02:02:38;5.00;99.90
52899;DHT22;38763;53.096;6.062;2023-02-12T02:05:04;4.90;99.90
52899;DHT22;38763;53.096;6.062;2023-02-12T02:07:31;4.90;99.90
52899;DHT22;38763;53.096;6.062;2023-02-12T02:09:57;4.90;99.90
52899;DHT22;38763;53.096;6.062;2023-02-12T02:12:24;5.00;99.90
52899;DHT22;38763;53.096;6.062;2023-02-12T02:15:09;4.80;99.90
52899;DHT22;38763;53.096;6.062;2023-02-12T02:17:55;4.80;99.90
52899;DHT22;38763;53.096;6.062;2023-02-12T02:36:48;4.80;99.90
52899;DHT22;38763;53.096;6.062;2023-02-12T02:42:34;4.80;99.90
52899;DHT22;38763;53.096;6.062;2023-02-12T02:45:16;4.80;99.90
52899;DHT22;38763;53.096;6.062;2023-02-12T02:47:57;4.80;99.90
52899;DHT22;38763;53.096;6.062;2023-02-12T02:50:27;4.90;99.90
52899;DHT22;38763;53.096;6.062;2023-02-12T02:53:09;4.80;99.90
52899;DHT22;38763;53.096;6.062;2023-02-12T02:55:37;4.80;99.90
52899;DHT22;38763;53.096;6.062;2023-02-12T02:58:10;4.70;99.90
52899;DHT22;38763;53.096;6.062;2023-02-12T03:00:44;4.80;99.90
52899;DHT22;38763;53.096;6.062;2023-02-12T03:03:25;4.80;99.90
52899;DHT22;38763;53.096;6.062;2023-02-12T03:05:57;4.60;99.90
52899;DHT22;38763;53.096;6.062;2023-02-12T03:08:30;4.80;99.90
52899;DHT22;38763;53.096;6.062;2023-02-12T03:11:28;4.80;99.90
52899;DHT22;38763;53.096;6.062;2023-02-12T03:14:25;4.70;99.90
52899;DHT22;38763;53.096;6.062;2023-02-12T03:17:12;4.60;99.90
52899;DHT22;38763;53.096;6.062;2023-02-12T03:19:44;4.80;99.90
52899;DHT22;38763;53.096;6.062;2023-02-12T03:22:32;4.60;99.90
52899;DHT22;38763;53.096;6.062;2023-02-12T03:25:06;4.80;99.90
52899;DHT22;38763;53.096;6.062;2023-02-12T03:27:42;4.70;99.90
52899;DHT22;38763;53.096;6.062;2023-02-12T03:30:09;4.80;99.90
52899;DHT22;38763;53.096;6.062;2023-02-12T03:35:24;4.60;99.90
52899;DHT22;38763;53.096;6.062;2023-02-12T03:37:55;4.80;99.90
52899;DHT22;38763;53.096;6.062;2023-02-12T03:40:33;4.70;99.90
52899;DHT22;38763;53.096;6.062;2023-02-12T03:51:00;4.70;99.90
52899;DHT22;38763;53.096;6.062;2023-02-12T03:53:28;4.60;99.90
52899;DHT22;38763;53.096;6.062;2023-02-12T03:56:01;4.80;99.90
52899;DHT22;38763;53.096;6.062;2023-02-12T03:58:29;4.80;99.90
52899;DHT22;38763;53.096;6.062;2023-02-12T04:00:57;4.80;99.90
52899;DHT22;38763;53.096;6.062;2023-02-12T04:03:24;4.80;99.90
52899;DHT22;38763;53.096;6.062;2023-02-12T04:05:50;4.90;99.90
52899;DHT22;38763;53.096;6.062;2023-02-12T04:08:15;4.80;99.90
52899;DHT22;38763;53.096;6.062;2023-02-12T04:10:57;4.80;99.90
52899;DHT22;38763;53.096;6.062;2023-02-12T04:16:25;4.80;99.90
52899;DHT22;38763;53.096;6.062;2023-02-12T04:18:54;4.80;99.90
52899;DHT22;38763;53.096;6.062;2023-02-12T04:24:04;4.80;99.90
52899;DHT22;38763;53.096;6.062;2023-02-12T04:29:16;4.80;99.90
52899;DHT22;38763;53.096;6.062;2023-02-12T04:31:57;4.70;99.90
52899;DHT22;38763;53.096;6.062;2023-02-12T04:37:25;4.70;99.90
52899;DHT22;38763;53.096;6.062;2023-02-12T04:39:53;4.80;99.90
52899;DHT22;38763;53.096;6.062;2023-02-12T04:42:19;4.60;99.90
52899;DHT22;38763;53.096;6.062;2023-02-12T04:44:45;4.60;99.90
52899;DHT22;38763;53.096;6.062;2023-02-12T04:47:12;4.60;99.90
52899;DHT22;38763;53.096;6.062;2023-02-12T04:49:37;4.50;99.90
52899;DHT22;38763;53.096;6.062;2023-02-12T04:52:03;4.80;99.90
52899;DHT22;38763;53.096;6.062;2023-02-12T04:54:29;4.70;99.90
52899;DHT22;38763;53.096;6.062;2023-02-12T04:56:54;4.60;99.90
52899;DHT22;38763;53.096;6.062;2023-02-12T04:59:20;4.60;99.90
52899;DHT22;38763;53.096;6.062;2023-02-12T05:01:46;4.50;99.90
52899;DHT22;38763;53.096;6.062;2023-02-12T05:04:13;4.60;99.90
52899;DHT22;38763;53.096;6.062;2023-02-12T05:06:39;4.40;99.90
52899;DHT22;38763;53.096;6.062;2023-02-12T05:09:06;4.40;99.90
52899;DHT22;38763;53.096;6.062;2023-02-12T05:11:32;4.50;99.90
52899;DHT22;38763;53.096;6.062;2023-02-12T05:13:58;4.40;99.90
52899;DHT22;38763;53.096;6.062;2023-02-12T05:16:24;4.30;99.90
52899;DHT22;38763;53.096;6.062;2023-02-12T05:18:50;4.40;99.90
52899;DHT22;38763;53.096;6.062;2023-02-12T05:21:16;4.30;99.90
52899;DHT22;38763;53.096;6.062;2023-02-12T05:23:42;4.20;99.90
52899;DHT22;38763;53.096;6.062;2023-02-12T05:26:13;4.30;99.90
52899;DHT22;38763;53.096;6.062;2023-02-12T05:28:39;4.20;99.90
52899;DHT22;38763;53.096;6.062;2023-02-12T05:31:07;4.20;99.90
52899;DHT22;38763;53.096;6.062;2023-02-12T05:33:33;4.30;99.90
52899;DHT22;38763;53.096;6.062;2023-02-12T05:36:03;4.10;99.90
52899;DHT22;38763;53.096;6.062;2023-02-12T05:38:29;4.10;99.90
52899;DHT22;38763;53.096;6.062;2023-02-12T05:41:13;4.10;99.90
52899;DHT22;38763;53.096;6.062;2023-02-12T05:43:40;4.20;99.90
52899;DHT22;38763;53.096;6.062;2023-02-12T05:46:07;4.10;99.90
52899;DHT22;38763;53.096;6.062;2023-02-12T05:48:33;4.00;99.90
52899;DHT22;38763;53.096;6.062;2023-02-12T05:51:12;4.10;99.90
52899;DHT22;38763;53.096;6.062;2023-02-12T05:53:39;4.00;99.90
52899;DHT22;38763;53.096;6.062;2023-02-12T05:56:20;4.10;99.90
52899;DHT22;38763;53.096;6.062;2023-02-12T05:58:48;4.20;99.90
52899;DHT22;38763;53.096;6.062;2023-02-12T06:01:19;4.10;99.90
52899;DHT22;38763;53.096;6.062;2023-02-12T06:03:45;4.00;99.90
52899;DHT22;38763;53.096;6.062;2023-02-12T06:06:11;4.10;99.90
52899;DHT22;38763;53.096;6.062;2023-02-12T06:08:37;4.10;99.90
52899;DHT22;38763;53.096;6.062;2023-02-12T06:11:06;4.10;99.90
52899;DHT22;38763;53.096;6.062;2023-02-12T06:13:32;4.20;99.90
52899;DHT22;38763;53.096;6.062;2023-02-12T06:15:58;4.20;99.90
52899;DHT22;38763;53.096;6.062;2023-02-12T06:18:24;4.30;99.90
52899;DHT22;38763;53.096;6.062;2023-02-12T06:20:50;4.20;99.90
52899;DHT22;38763;53.096;6.062;2023-02-12T06:23:19;4.20;99.90
52899;DHT22;38763;53.096;6.062;2023-02-12T06:25:47;4.30;99.90
52899;DHT22;38763;53.096;6.062;2023-02-12T06:28:13;4.20;99.90
52899;DHT22;38763;53.096;6.062;2023-02-12T06:30:38;4.30;99.90
52899;DHT22;38763;53.096;6.062;2023-02-12T06:33:04;4.30;99.90
52899;DHT22;38763;53.096;6.062;2023-02-12T06:35:29;4.40;99.90
52899;DHT22;38763;53.096;6.062;2023-02-12T06:37:56;4.40;99.90
52899;DHT22;38763;53.096;6.062;2023-02-12T06:40:22;4.60;99.90
52899;DHT22;38763;53.096;6.062;2023-02-12T06:42:47;4.50;99.90
52899;DHT22;38763;53.096;6.062;2023-02-12T06:45:13;4.40;99.90
52899;DHT22;38763;53.096;6.062;2023-02-12T06:47:39;4.60;99.90
52899;DHT22;38763;53.096;6.062;2023-02-12T06:50:05;4.50;99.90
52899;DHT22;38763;53.096;6.062;2023-02-12T06:52:31;4.60;99.90
52899;DHT22;38763;53.096;6.062;2023-02-12T06:54:56;4.70;99.90
52899;DHT22;38763;53.096;6.062;2023-02-12T06:57:22;4.60;99.90
52899;DHT22;38763;53.096;6.062;2023-02-12T06:59:48;4.70;99.90
52899;DHT22;38763;53.096;6.062;2023-02-12T07:02:14;4.70;99.90
52899;DHT22;38763;53.096;6.062;2023-02-12T07:04:39;4.80;99.90
52899;DHT22;38763;53.096;6.062;2023-02-12T07:07:05;4.70;99.90
52899;DHT22;38763;53.096;6.062;2023-02-12T07:09:31;4.70;99.90
52899;DHT22;38763;53.096;6.062;2023-02-12T07:11:59;4.70;99.90
52899;DHT22;38763;53.096;6.062;2023-02-12T07:14:25;4.90;99.90
52899;DHT22;38763;53.096;6.062;2023-02-12T07:16:53;4.80;99.90
52899;DHT22;38763;53.096;6.062;2023-02-12T07:19:19;4.80;99.90
52899;DHT22;38763;53.096;6.062;2023-02-12T07:21:45;5.00;99.90
52899;DHT22;38763;53.096;6.062;2023-02-12T07:24:11;4.80;99.90
52899;DHT22;38763;53.096;6.062;2023-02-12T07:26:38;4.90;99.90
52899;DHT22;38763;53.096;6.062;2023-02-12T07:29:04;5.00;99.90
52899;DHT22;38763;53.096;6.062;2023-02-12T07:31:30;5.10;99.90
52899;DHT22;38763;53.096;6.062;2023-02-12T07:33:57;4.90;99.90
52899;DHT22;38763;53.096;6.062;2023-02-12T07:36:23;5.00;99.90
52899;DHT22;38763;53.096;6.062;2023-02-12T07:38:49;5.10;99.90
52899;DHT22;38763;53.096;6.062;2023-02-12T07:41:18;5.00;99.90
52899;DHT22;38763;53.096;6.062;2023-02-12T07:43:45;5.10;99.90
52899;DHT22;38763;53.096;6.062;2023-02-12T07:46:23;5.20;99.90
52899;DHT22;38763;53.096;6.062;2023-02-12T07:48:54;5.10;99.90
52899;DHT22;38763;53.096;6.062;2023-02-12T07:51:20;5.10;99.90
52899;DHT22;38763;53.096;6.062;2023-02-12T07:53:46;5.20;99.90
52899;DHT22;38763;53.096;6.062;2023-02-12T07:56:14;5.20;99.90
52899;DHT22;38763;53.096;6.062;2023-02-12T07:58:42;5.20;99.90
52899;DHT22;38763;53.096;6.062;2023-02-12T08:01:16;5.40;99.90
52899;DHT22;38763;53.096;6.062;2023-02-12T08:03:42;5.20;99.90
52899;DHT22;38763;53.096;6.062;2023-02-12T08:06:10;5.50;99.90
52899;DHT22;38763;53.096;6.062;2023-02-12T08:08:36;5.50;99.90
52899;DHT22;38763;53.096;6.062;2023-02-12T08:11:08;5.50;99.90
52899;DHT22;38763;53.096;6.062;2023-02-12T08:13:35;5.50;99.90
52899;DHT22;38763;53.096;6.062;2023-02-12T08:16:02;5.50;99.90
52899;DHT22;38763;53.096;6.062;2023-02-12T08:18:32;5.50;99.90
52899;DHT22;38763;53.096;6.062;2023-02-12T08:21:03;5.70;99.90
52899;DHT22;38763;53.096;6.062;2023-02-12T08:23:29;5.60;99.90
52899;DHT22;38763;53.096;6.062;2023-02-12T08:26:07;5.70;99.90
52899;DHT22;38763;53.096;6.062;2023-02-12T08:28:33;5.80;99.90
52899;DHT22;38763;53.096;6.062;2023-02-12T08:31:08;5.70;99.90
52899;DHT22;38763;53.096;6.062;2023-02-12T08:33:34;6.00;99.90
52899;DHT22;38763;53.096;6.062;2023-02-12T08:36:09;5.90;99.90
52899;DHT22;38763;53.096;6.062;2023-02-12T08:38:35;6.00;99.90
52899;DHT22;38763;53.096;6.062;2023-02-12T08:41:10;5.90;99.90
52899;DHT22;38763;53.096;6.062;2023-02-12T08:43:37;6.00;99.90
52899;DHT22;38763;53.096;6.062;2023-02-12T08:46:12;6.20;99.90
52899;DHT22;38763;53.096;6.062;2023-02-12T08:48:39;6.10;99.90
52899;DHT22;38763;53.096;6.062;2023-02-12T08:51:08;6.10;99.90
52899;DHT22;38763;53.096;6.062;2023-02-12T08:53:35;6.30;99.90
52899;DHT22;38763;53.096;6.062;2023-02-12T08:56:01;6.40;99.90
52899;DHT22;38763;53.096;6.062;2023-02-12T08:58:27;6.30;99.90
52899;DHT22;38763;53.096;6.062;2023-02-12T09:00:52;6.50;99.90
52899;DHT22;38763;53.096;6.062;2023-02-12T09:03:18;6.40;99.90
52899;DHT22;38763;53.096;6.062;2023-02-12T09:05:44;6.40;99.90
52899;DHT22;38763;53.096;6.062;2023-02-12T09:08:09;6.50;99.90
52899;DHT22;38763;53.096;6.062;2023-02-12T09:10:39;6.50;99.90
52899;DHT22;38763;53.096;6.062;2023-02-12T09:13:07;6.50;99.90
52899;DHT22;38763;53.096;6.062;2023-02-12T09:15:40;6.60;99.90
52899;DHT22;38763;53.096;6.062;2023-02-12T09:18:07;6.70;99.90
52899;DHT22;38763;53.096;6.062;2023-02-12T09:20:32;6.60;99.90
52899;DHT22;38763;53.096;6.062;2023-02-12T09:23:01;6.80;99.90
52899;DHT22;38763;53.096;6.062;2023-02-12T09:25:27;6.80;99.90
52899;DHT22;38763;53.096;6.062;2023-02-12T09:27:54;6.90;99.90
52899;DHT22;38763;53.096;6.062;2023-02-12T09:30:20;7.00;99.90
52899;DHT22;38763;53.096;6.062;2023-02-12T09:32:45;6.90;99.90
52899;DHT22;38763;53.096;6.062;2023-02-12T09:35:11;7.10;99.90
52899;DHT22;38763;53.096;6.062;2023-02-12T09:37:38;7.10;99.90
52899;DHT22;38763;53.096;6.062;2023-02-12T09:40:17;7.10;99.90
52899;DHT22;38763;53.096;6.062;2023-02-12T09:45:23;7.20;99.90
52899;DHT22;38763;53.096;6.062;2023-02-12T09:53:22;7.40;99.90
52899;DHT22;38763;53.096;6.062;2023-02-12T09:55:48;7.40;99.90
52899;DHT22;38763;53.096;6.062;2023-02-12T10:01:14;7.50;99.90
52899;DHT22;38763;53.096;6.062;2023-02-12T10:03:40;7.60;99.90
52899;DHT22;38763;53.096;6.062;2023-02-12T10:11:49;7.70;99.90
52899;DHT22;38763;53.096;6.062;2023-02-12T10:25:40;8.10;99.90
52899;DHT22;38763;53.096;6.062;2023-02-12T10:28:14;8.10;99.90
52899;DHT22;38763;53.096;6.062;2023-02-12T10:30:59;8.10;99.90
52899;DHT22;38763;53.096;6.062;2023-02-12T10:33:29;8.20;99.90
52899;DHT22;38763;53.096;6.062;2023-02-12T10:36:14;8.30;99.90
52899;DHT22;38763;53.096;6.062;2023-02-12T10:38:46;8.20;99.90
52899;DHT22;38763;53.096;6.062;2023-02-12T10:41:14;8.30;99.90
52899;DHT22;38763;53.096;6.062;2023-02-12T10:43:41;8.40;99.90
52899;DHT22;38763;53.096;6.062;2023-02-12T10:46:13;8.50;99.90
52899;DHT22;38763;53.096;6.062;2023-02-12T10:48:41;8.50;99.90
52899;DHT22;38763;53.096;6.062;2023-02-12T10:53:41;8.70;99.90
52899;DHT22;38763;53.096;6.062;2023-02-12T10:58:35;8.80;99.90
52899;DHT22;38763;53.096;6.062;2023-02-12T11:01:02;8.80;99.90
52899;DHT22;38763;53.096;6.062;2023-02-12T11:03:31;8.80;99.90
52899;DHT22;38763;53.096;6.062;2023-02-12T11:08:38;8.80;99.90
52899;DHT22;38763;53.096;6.062;2023-02-12T11:11:13;8.80;99.90
52899;DHT22;38763;53.096;6.062;2023-02-12T11:13:44;8.80;99.90
52899;DHT22;38763;53.096;6.062;2023-02-12T11:16:11;8.80;99.90
52899;DHT22;38763;53.096;6.062;2023-02-12T11:18:37;8.70;99.90
52899;DHT22;38763;53.096;6.062;2023-02-12T11:21:06;8.80;99.90
52899;DHT22;38763;53.096;6.062;2023-02-12T11:23:41;8.70;99.90
52899;DHT22;38763;53.096;6.062;2023-02-12T11:26:24;8.70;99.90
52899;DHT22;38763;53.096;6.062;2023-02-12T11:28:59;8.70;99.90
52899;DHT22;38763;53.096;6.062;2023-02-12T11:31:30;8.70;99.90
52899;DHT22;38763;53.096;6.062;2023-02-12T11:34:24;8.80;99.90
52899;DHT22;38763;53.096;6.062;2023-02-12T11:36:51;8.70;99.90
52899;DHT22;38763;53.096;6.062;2023-02-12T11:39:23;8.60;99.90
52899;DHT22;38763;53.096;6.062;2023-02-12T11:41:56;8.70;99.90
52899;DHT22;38763;53.096;6.062;2023-02-12T11:44:36;8.70;99.90
52899;DHT22;38763;53.096;6.062;2023-02-12T11:47:08;8.70;99.90
52899;DHT22;38763;53.096;6.062;2023-02-12T11:49:47;8.70;99.90
52899;DHT22;38763;53.096;6.062;2023-02-12T11:52:22;8.70;99.90
52899;DHT22;38763;53.096;6.062;2023-02-12T11:54:50;8.70;99.90
52899;DHT22;38763;53.096;6.062;2023-02-12T11:57:38;8.70;99.90
52899;DHT22;38763;53.096;6.062;2023-02-12T12:00:34;8.70;99.90
52899;DHT22;38763;53.096;6.062;2023-02-12T12:03:15;8.70;99.90
52899;DHT22;38763;53.096;6.062;2023-02-12T12:05:51;8.70;99.90
52899;DHT22;38763;53.096;6.062;2023-02-12T12:08:26;8.80;99.90
52899;DHT22;38763;53.096;6.062;2023-02-12T12:10:58;8.80;99.90
52899;DHT22;38763;53.096;6.062;2023-02-12T12:13:34;8.80;99.90
52899;DHT22;38763;53.096;6.062;2023-02-12T12:16:26;8.90;99.90
52899;DHT22;38763;53.096;6.062;2023-02-12T12:19:32;9.00;99.90
52899;DHT22;38763;53.096;6.062;2023-02-12T12:22:29;9.00;99.90
52899;DHT22;38763;53.096;6.062;2023-02-12T12:25:14;9.00;99.90
52899;DHT22;38763;53.096;6.062;2023-02-12T12:47:16;8.80;99.90
52899;DHT22;38763;53.096;6.062;2023-02-12T12:49:51;8.80;99.90
52899;DHT22;38763;53.096;6.062;2023-02-12T12:55:07;8.80;99.90
52899;DHT22;38763;53.096;6.062;2023-02-12T12:58:01;8.80;99.90
52899;DHT22;38763;53.096;6.062;2023-02-12T13:06:25;8.80;99.90
52899;DHT22;38763;53.096;6.062;2023-02-12T13:09:24;8.80;99.90
52899;DHT22;38763;53.096;6.062;2023-02-12T13:12:10;8.80;99.90
52899;DHT22;38763;53.096;6.062;2023-02-12T13:15:20;8.80;99.90
52899;DHT22;38763;53.096;6.062;2023-02-12T13:17:48;8.80;99.90
52899;DHT22;38763;53.096;6.062;2023-02-12T13:23:15;8.90;99.90
52899;DHT22;38763;53.096;6.062;2023-02-12T13:28:34;8.80;99.90
52899;DHT22;38763;53.096;6.062;2023-02-12T13:31:03;8.90;99.90
52899;DHT22;38763;53.096;6.062;2023-02-12T13:33:49;9.00;99.90
52899;DHT22;38763;53.096;6.062;2023-02-12T13:36:16;8.80;99.90
52899;DHT22;38763;53.096;6.062;2023-02-12T13:38:57;8.80;99.90
52899;DHT22;38763;53.096;6.062;2023-02-12T13:41:25;8.80;99.90
52899;DHT22;38763;53.096;6.062;2023-02-12T13:49:54;8.80;99.90
52899;DHT22;38763;53.096;6.062;2023-02-12T13:57:24;8.80;99.90
52899;DHT22;38763;53.096;6.062;2023-02-12T13:59:51;8.80;99.90
52899;DHT22;38763;53.096;6.062;2023-02-12T14:05:12;8.80;99.90
52899;DHT22;38763;53.096;6.062;2023-02-12T14:07:42;8.80;99.90
52899;DHT22;38763;53.096;6.062;2023-02-12T14:12:45;8.80;99.90
52899;DHT22;38763;53.096;6.062;2023-02-12T14:15:31;8.80;99.90
52899;DHT22;38763;53.096;6.062;2023-02-12T14:18:31;8.80;99.90
52899;DHT22;38763;53.096;6.062;2023-02-12T14:23:42;8.70;99.90
52899;DHT22;38763;53.096;6.062;2023-02-12T14:26:13;8.70;99.90
52899;DHT22;38763;53.096;6.062;2023-02-12T14:29:00;8.70;99.90
52899;DHT22;38763;53.096;6.062;2023-02-12T14:41:46;8.60;99.90
52899;DHT22;38763;53.096;6.062;2023-02-12T14:47:11;8.60;99.90
52899;DHT22;38763;53.096;6.062;2023-02-12T14:49:47;8.60;99.90
52899;DHT22;38763;53.096;6.062;2023-02-12T14:52:21;8.60;99.90
52899;DHT22;38763;53.096;6.062;2023-02-12T14:55:02;8.60;99.90
52899;DHT22;38763;53.096;6.062;2023-02-12T14:57:34;8.60;99.90
52899;DHT22;38763;53.096;6.062;2023-02-12T15:00:03;8.60;99.90
52899;DHT22;38763;53.096;6.062;2023-02-12T15:02:33;8.50;99.90
52899;DHT22;38763;53.096;6.062;2023-02-12T15:05:11;8.50;99.90
52899;DHT22;38763;53.096;6.062;2023-02-12T15:07:48;8.60;99.90
52899;DHT22;38763;53.096;6.062;2023-02-12T15:10:20;8.50;99.90
52899;DHT22;38763;53.096;6.062;2023-02-12T15:13:07;8.50;99.90
52899;DHT22;38763;53.096;6.062;2023-02-12T15:16:07;8.50;99.90
52899;DHT22;38763;53.096;6.062;2023-02-12T15:21:25;8.50;99.90
52899;DHT22;38763;53.096;6.062;2023-02-12T15:26:47;8.50;99.90
52899;DHT22;38763;53.096;6.062;2023-02-12T15:29:32;8.50;99.90
52899;DHT22;38763;53.096;6.062;2023-02-12T15:32:03;8.40;99.90
52899;DHT22;38763;53.096;6.062;2023-02-12T15:34:32;8.40;99.90
52899;DHT22;38763;53.096;6.062;2023-02-12T15:37:01;8.40;99.90
52899;DHT22;38763;53.096;6.062;2023-02-12T15:39:30;8.40;99.90
52899;DHT22;38763;53.096;6.062;2023-02-12T15:41:57;8.30;99.90
52899;DHT22;38763;53.096;6.062;2023-02-12T15:44:26;8.30;99.90
52899;DHT22;38763;53.096;6.062;2023-02-12T15:47:13;8.30;99.90
52899;DHT22;38763;53.096;6.062;2023-02-12T15:49:41;8.30;99.90
52899;DHT22;38763;53.096;6.062;2023-02-12T15:52:22;8.20;99.90
52899;DHT22;38763;53.096;6.062;2023-02-12T15:54:51;8.20;99.90
52899;DHT22;38763;53.096;6.062;2023-02-12T15:57:20;8.20;99.90
52899;DHT22;38763;53.096;6.062;2023-02-12T15:59:51;8.20;99.90
52899;DHT22;38763;53.096;6.062;2023-02-12T16:02:26;8.20;99.90
52899;DHT22;38763;53.096;6.062;2023-02-12T16:04:54;8.10;99.90
52899;DHT22;38763;53.096;6.062;2023-02-12T16:07:20;8.10;99.90
52899;DHT22;38763;53.096;6.062;2023-02-12T16:09:48;8.10;99.90
52899;DHT22;38763;53.096;6.062;2023-02-12T16:12:19;8.10;99.90
52899;DHT22;38763;53.096;6.062;2023-02-12T16:14:51;8.00;99.90
52899;DHT22;38763;53.096;6.062;2023-02-12T16:17:32;8.10;99.90
52899;DHT22;38763;53.096;6.062;2023-02-12T16:20:00;8.00;99.90
52899;DHT22;38763;53.096;6.062;2023-02-12T16:24:54;7.90;99.90
52899;DHT22;38763;53.096;6.062;2023-02-12T16:27:27;7.90;99.90
52899;DHT22;38763;53.096;6.062;2023-02-12T16:30:00;7.90;99.90
52899;DHT22;38763;53.096;6.062;2023-02-12T16:32:40;8.00;99.90
52899;DHT22;38763;53.096;6.062;2023-02-12T16:40:28;7.80;99.90
52899;DHT22;38763;53.096;6.062;2023-02-12T16:43:20;7.80;99.90
52899;DHT22;38763;53.096;6.062;2023-02-12T16:45:47;7.80;99.90
52899;DHT22;38763;53.096;6.062;2023-02-12T16:48:21;7.80;99.90
52899;DHT22;38763;53.096;6.062;2023-02-12T16:50:55;7.80;99.90
52899;DHT22;38763;53.096;6.062;2023-02-12T16:55:56;7.70;99.90
52899;DHT22;38763;53.096;6.062;2023-02-12T16:58:22;7.80;99.90
52899;DHT22;38763;53.096;6.062;2023-02-12T17:00:49;7.80;99.90
52899;DHT22;38763;53.096;6.062;2023-02-12T17:03:15;7.70;99.90
52899;DHT22;38763;53.096;6.062;2023-02-12T17:05:41;7.70;99.90
52899;DHT22;38763;53.096;6.062;2023-02-12T17:08:14;7.70;99.90
52899;DHT22;38763;53.096;6.062;2023-02-12T17:10:40;7.70;99.90
52899;DHT22;38763;53.096;6.062;2023-02-12T17:13:05;7.70;99.90
52899;DHT22;38763;53.096;6.062;2023-02-12T17:15:58;7.60;99.90
52899;DHT22;38763;53.096;6.062;2023-02-12T17:18:27;7.60;99.90
52899;DHT22;38763;53.096;6.062;2023-02-12T17:21:01;7.60;99.90
52899;DHT22;38763;53.096;6.062;2023-02-12T17:23:28;7.60;99.90
52899;DHT22;38763;53.096;6.062;2023-02-12T17:25:53;7.60;99.90
52899;DHT22;38763;53.096;6.062;2023-02-12T17:28:19;7.60;99.90
52899;DHT22;38763;53.096;6.062;2023-02-12T17:30:47;7.60;99.90
52899;DHT22;38763;53.096;6.062;2023-02-12T17:33:13;7.60;99.90
52899;DHT22;38763;53.096;6.062;2023-02-12T17:35:39;7.60;99.90
52899;DHT22;38763;53.096;6.062;2023-02-12T17:38:05;7.60;99.90
52899;DHT22;38763;53.096;6.062;2023-02-12T17:40:34;7.60;99.90
52899;DHT22;38763;53.096;6.062;2023-02-12T17:43:00;7.60;99.90
52899;DHT22;38763;53.096;6.062;2023-02-12T17:45:26;7.60;99.90
52899;DHT22;38763;53.096;6.062;2023-02-12T17:47:52;7.60;99.90
52899;DHT22;38763;53.096;6.062;2023-02-12T17:50:18;7.50;99.90
52899;DHT22;38763;53.096;6.062;2023-02-12T17:52:43;7.50;99.90
52899;DHT22;38763;53.096;6.062;2023-02-12T17:55:10;7.50;99.90
52899;DHT22;38763;53.096;6.062;2023-02-12T17:57:36;7.50;99.90
52899;DHT22;38763;53.096;6.062;2023-02-12T18:00:06;7.40;99.90
52899;DHT22;38763;53.096;6.062;2023-02-12T18:02:32;7.40;99.90
52899;DHT22;38763;53.096;6.062;2023-02-12T18:04:57;7.50;99.90
52899;DHT22;38763;53.096;6.062;2023-02-12T18:07:23;7.50;99.90
52899;DHT22;38763;53.096;6.062;2023-02-12T18:09:49;7.50;99.90
52899;DHT22;38763;53.096;6.062;2023-02-12T18:12:14;7.50;99.90
52899;DHT22;38763;53.096;6.062;2023-02-12T18:14:40;7.50;99.90
52899;DHT22;38763;53.096;6.062;2023-02-12T18:17:06;7.40;99.90
52899;DHT22;38763;53.096;6.062;2023-02-12T18:19:31;7.40;99.90
52899;DHT22;38763;53.096;6.062;2023-02-12T18:21:57;7.40;99.90
52899;DHT22;38763;53.096;6.062;2023-02-12T18:24:22;7.40;99.90
52899;DHT22;38763;53.096;6.062;2023-02-12T18:26:48;7.40;99.90
52899;DHT22;38763;53.096;6.062;2023-02-12T18:29:14;7.40;99.90
52899;DHT22;38763;53.096;6.062;2023-02-12T18:31:40;7.40;99.90
52899;DHT22;38763;53.096;6.062;2023-02-12T18:34:06;7.40;99.90
52899;DHT22;38763;53.096;6.062;2023-02-12T18:36:32;7.40;99.90
52899;DHT22;38763;53.096;6.062;2023-02-12T18:38:58;7.40;99.90
52899;DHT22;38763;53.096;6.062;2023-02-12T18:41:28;7.40;99.90
52899;DHT22;38763;53.096;6.062;2023-02-12T18:43:55;7.40;99.90
52899;DHT22;38763;53.096;6.062;2023-02-12T18:46:24;7.40;99.90